sensor_id;sensor_type;location;lat;lon;timestamp;P1;durP1;ratioP1;P2;durP2;ratioP2
974;SDS011;6115;49.296;10.602;2023-03-03T00:02:52;30.63;;;16.30;;
974;SDS011;6115;49.296;10.602;2023-03-03T00:07:53;27.13;;;15.30;;
974;SDS011;6115;49.296;10.602;2023-03-03T00:12:53;28.40;;;15.27;;
974;SDS011;6115;49.296;10.602;2023-03-03T00:17:54;30.57;;;16.50;;
974;SDS011;6115;49.296;10.602;2023-03-03T00:22:55;31.53;;;15.43;;
974;SDS011;6115;49.296;10.602;2023-03-03T00:28:07;28.77;;;15.97;;
974;SDS011;6115;49.296;10.602;2023-03-03T00:38:31;25.37;;;13.90;;
974;SDS011;6115;49.296;10.602;2023-03-03T00:43:35;26.03;;;14.17;;
974;SDS011;6115;49.296;10.602;2023-03-03T00:53:36;29.00;;;15.23;;
974;SDS011;6115;49.296;10.602;2023-03-03T00:58:37;32.97;;;15.13;;
974;SDS011;6115;49.296;10.602;2023-03-03T01:03:37;30.40;;;14.70;;
974;SDS011;6115;49.296;10.602;2023-03-03T01:08:38;27.87;;;15.47;;
974;SDS011;6115;49.296;10.602;2023-03-03T01:13:39;26.73;;;14.80;;
974;SDS011;6115;49.296;10.602;2023-03-03T01:18:43;27.80;;;13.70;;
974;SDS011;6115;49.296;10.602;2023-03-03T01:23:43;28.87;;;15.20;;
974;SDS011;6115;49.296;10.602;2023-03-03T01:28:44;26.57;;;15.13;;
974;SDS011;6115;49.296;10.602;2023-03-03T01:33:44;26.13;;;14.40;;
974;SDS011;6115;49.296;10.602;2023-03-03T01:38:45;31.80;;;15.00;;
974;SDS011;6115;49.296;10.602;2023-03-03T01:43:47;29.63;;;13.10;;
974;SDS011;6115;49.296;10.602;2023-03-03T01:48:50;26.83;;;15.00;;
974;SDS011;6115;49.296;10.602;2023-03-03T01:53:55;27.87;;;14.80;;
974;SDS011;6115;49.296;10.602;2023-03-03T01:59:00;31.10;;;16.17;;
974;SDS011;6115;49.296;10.602;2023-03-03T02:04:04;27.30;;;15.07;;
974;SDS011;6115;49.296;10.602;2023-03-03T02:09:15;29.23;;;14.23;;
974;SDS011;6115;49.296;10.602;2023-03-03T02:14:30;25.70;;;13.57;;
974;SDS011;6115;49.296;10.602;2023-03-03T02:19:35;24.70;;;14.03;;
974;SDS011;6115;49.296;10.602;2023-03-03T02:25:05;25.87;;;14.10;;
974;SDS011;6115;49.296;10.602;2023-03-03T02:30:21;29.37;;;14.07;;
974;SDS011;6115;49.296;10.602;2023-03-03T02:35:27;28.40;;;13.93;;
974;SDS011;6115;49.296;10.602;2023-03-03T02:40:29;28.17;;;13.47;;
974;SDS011;6115;49.296;10.602;2023-03-03T02:45:40;23.67;;;14.03;;
974;SDS011;6115;49.296;10.602;2023-03-03T02:50:42;23.27;;;12.60;;
974;SDS011;6115;49.296;10.602;2023-03-03T02:55:42;23.67;;;13.80;;
974;SDS011;6115;49.296;10.602;2023-03-03T03:00:43;29.43;;;14.37;;
974;SDS011;6115;49.296;10.602;2023-03-03T03:05:46;24.23;;;14.23;;
974;SDS011;6115;49.296;10.602;2023-03-03T03:10:47;24.40;;;13.80;;
974;SDS011;6115;49.296;10.602;2023-03-03T03:15:48;27.93;;;13.80;;
974;SDS011;6115;49.296;10.602;2023-03-03T03:20:48;26.77;;;14.07;;
974;SDS011;6115;49.296;10.602;2023-03-03T03:25:49;30.23;;;14.63;;
974;SDS011;6115;49.296;10.602;2023-03-03T03:30:50;24.10;;;13.40;;
974;SDS011;6115;49.296;10.602;2023-03-03T03:35:51;30.20;;;13.90;;
974;SDS011;6115;49.296;10.602;2023-03-03T03:40:52;26.33;;;13.83;;
974;SDS011;6115;49.296;10.602;2023-03-03T03:45:53;27.50;;;13.17;;
974;SDS011;6115;49.296;10.602;2023-03-03T03:50:53;28.23;;;14.80;;
974;SDS011;6115;49.296;10.602;2023-03-03T03:55:55;29.20;;;14.67;;
974;SDS011;6115;49.296;10.602;2023-03-03T04:01:00;22.50;;;14.10;;
974;SDS011;6115;49.296;10.602;2023-03-03T04:06:05;25.90;;;14.00;;
974;SDS011;6115;49.296;10.602;2023-03-03T04:11:05;21.90;;;13.43;;
974;SDS011;6115;49.296;10.602;2023-03-03T04:16:06;23.53;;;13.30;;
974;SDS011;6115;49.296;10.602;2023-03-03T04:21:10;27.13;;;14.00;;
974;SDS011;6115;49.296;10.602;2023-03-03T04:26:12;31.20;;;15.40;;
974;SDS011;6115;49.296;10.602;2023-03-03T04:31:12;23.07;;;13.20;;
974;SDS011;6115;49.296;10.602;2023-03-03T04:36:13;25.00;;;12.87;;
974;SDS011;6115;49.296;10.602;2023-03-03T04:41:14;28.53;;;14.50;;
974;SDS011;6115;49.296;10.602;2023-03-03T04:46:14;25.07;;;14.40;;
974;SDS011;6115;49.296;10.602;2023-03-03T04:51:15;28.97;;;14.13;;
974;SDS011;6115;49.296;10.602;2023-03-03T04:56:17;21.20;;;13.20;;
974;SDS011;6115;49.296;10.602;2023-03-03T05:01:18;23.87;;;14.30;;
974;SDS011;6115;49.296;10.602;2023-03-03T05:06:18;25.60;;;13.27;;
974;SDS011;6115;49.296;10.602;2023-03-03T05:11:19;24.50;;;14.30;;
974;SDS011;6115;49.296;10.602;2023-03-03T05:16:20;24.57;;;14.00;;
974;SDS011;6115;49.296;10.602;2023-03-03T05:21:24;27.03;;;14.57;;
974;SDS011;6115;49.296;10.602;2023-03-03T05:26:24;22.37;;;12.50;;
974;SDS011;6115;49.296;10.602;2023-03-03T05:31:25;30.73;;;14.13;;
974;SDS011;6115;49.296;10.602;2023-03-03T05:36:26;22.40;;;12.30;;
974;SDS011;6115;49.296;10.602;2023-03-03T05:41:26;25.17;;;12.30;;
974;SDS011;6115;49.296;10.602;2023-03-03T05:46:27;27.30;;;15.20;;
974;SDS011;6115;49.296;10.602;2023-03-03T05:51:28;19.80;;;13.10;;
974;SDS011;6115;49.296;10.602;2023-03-03T05:56:28;22.03;;;13.13;;
974;SDS011;6115;49.296;10.602;2023-03-03T06:01:29;25.23;;;13.77;;
974;SDS011;6115;49.296;10.602;2023-03-03T06:06:29;25.97;;;13.30;;
974;SDS011;6115;49.296;10.602;2023-03-03T06:11:30;32.00;;;13.07;;
974;SDS011;6115;49.296;10.602;2023-03-03T06:16:31;29.67;;;15.67;;
974;SDS011;6115;49.296;10.602;2023-03-03T06:21:31;26.50;;;13.67;;
974;SDS011;6115;49.296;10.602;2023-03-03T06:26:32;25.40;;;13.20;;
974;SDS011;6115;49.296;10.602;2023-03-03T06:31:33;29.83;;;14.80;;
974;SDS011;6115;49.296;10.602;2023-03-03T06:36:33;30.47;;;14.23;;
974;SDS011;6115;49.296;10.602;2023-03-03T06:41:34;26.63;;;14.50;;
974;SDS011;6115;49.296;10.602;2023-03-03T06:46:34;29.23;;;14.10;;
974;SDS011;6115;49.296;10.602;2023-03-03T06:51:36;35.90;;;16.73;;
974;SDS011;6115;49.296;10.602;2023-03-03T06:56:43;34.80;;;18.07;;
974;SDS011;6115;49.296;10.602;2023-03-03T07:01:45;27.23;;;15.03;;
974;SDS011;6115;49.296;10.602;2023-03-03T07:06:49;28.83;;;14.50;;
974;SDS011;6115;49.296;10.602;2023-03-03T07:11:51;32.43;;;16.73;;
974;SDS011;6115;49.296;10.602;2023-03-03T07:16:55;32.47;;;16.67;;
974;SDS011;6115;49.296;10.602;2023-03-03T07:27:16;34.70;;;18.73;;
974;SDS011;6115;49.296;10.602;2023-03-03T07:32:36;34.30;;;15.13;;
974;SDS011;6115;49.296;10.602;2023-03-03T07:37:39;26.20;;;15.30;;
974;SDS011;6115;49.296;10.602;2023-03-03T07:42:41;31.27;;;17.07;;
974;SDS011;6115;49.296;10.602;2023-03-03T07:47:43;32.67;;;18.30;;
974;SDS011;6115;49.296;10.602;2023-03-03T07:52:52;39.63;;;19.20;;
974;SDS011;6115;49.296;10.602;2023-03-03T07:57:55;42.97;;;23.33;;
974;SDS011;6115;49.296;10.602;2023-03-03T08:03:15;36.90;;;17.27;;
974;SDS011;6115;49.296;10.602;2023-03-03T08:18:34;48.93;;;19.53;;
974;SDS011;6115;49.296;10.602;2023-03-03T08:23:37;48.70;;;28.30;;
974;SDS011;6115;49.296;10.602;2023-03-03T08:28:38;52.83;;;21.83;;
974;SDS011;6115;49.296;10.602;2023-03-03T08:33:38;52.80;;;21.47;;
974;SDS011;6115;49.296;10.602;2023-03-03T08:38:39;34.93;;;16.13;;
974;SDS011;6115;49.296;10.602;2023-03-03T08:43:40;31.37;;;18.70;;
974;SDS011;6115;49.296;10.602;2023-03-03T08:48:40;29.53;;;17.93;;
974;SDS011;6115;49.296;10.602;2023-03-03T08:53:41;40.70;;;19.50;;
974;SDS011;6115;49.296;10.602;2023-03-03T08:58:42;38.40;;;19.40;;
974;SDS011;6115;49.296;10.602;2023-03-03T09:03:46;37.17;;;18.83;;
974;SDS011;6115;49.296;10.602;2023-03-03T09:08:47;38.60;;;19.40;;
974;SDS011;6115;49.296;10.602;2023-03-03T09:13:48;36.97;;;19.13;;
974;SDS011;6115;49.296;10.602;2023-03-03T09:18:52;34.43;;;20.23;;
974;SDS011;6115;49.296;10.602;2023-03-03T09:23:56;36.30;;;20.40;;
974;SDS011;6115;49.296;10.602;2023-03-03T09:29:06;37.30;;;20.17;;
974;SDS011;6115;49.296;10.602;2023-03-03T09:34:21;32.97;;;17.37;;
974;SDS011;6115;49.296;10.602;2023-03-03T09:39:25;32.50;;;19.53;;
974;SDS011;6115;49.296;10.602;2023-03-03T09:50:05;35.80;;;19.70;;
974;SDS011;6115;49.296;10.602;2023-03-03T10:05:40;30.23;;;19.73;;
974;SDS011;6115;49.296;10.602;2023-03-03T10:27:11;32.17;;;21.73;;
974;SDS011;6115;49.296;10.602;2023-03-03T10:32:24;31.17;;;21.50;;
974;SDS011;6115;49.296;10.602;2023-03-03T10:37:39;27.00;;;20.57;;
974;SDS011;6115;49.296;10.602;2023-03-03T10:48:37;28.53;;;20.83;;
974;SDS011;6115;49.296;10.602;2023-03-03T11:04:00;29.47;;;20.47;;
974;SDS011;6115;49.296;10.602;2023-03-03T11:09:23;30.00;;;20.60;;
974;SDS011;6115;49.296;10.602;2023-03-03T11:14:37;27.07;;;18.77;;
974;SDS011;6115;49.296;10.602;2023-03-03T11:19:55;29.60;;;20.50;;
974;SDS011;6115;49.296;10.602;2023-03-03T11:35:56;31.40;;;22.20;;
974;SDS011;6115;49.296;10.602;2023-03-03T11:46:37;29.30;;;22.03;;
974;SDS011;6115;49.296;10.602;2023-03-03T11:52:02;30.80;;;21.60;;
974;SDS011;6115;49.296;10.602;2023-03-03T12:08:04;28.57;;;21.40;;
974;SDS011;6115;49.296;10.602;2023-03-03T12:13:22;25.33;;;21.20;;
974;SDS011;6115;49.296;10.602;2023-03-03T12:19:08;25.90;;;20.93;;
974;SDS011;6115;49.296;10.602;2023-03-03T12:34:45;30.83;;;21.57;;
974;SDS011;6115;49.296;10.602;2023-03-03T12:40:22;27.90;;;19.60;;
974;SDS011;6115;49.296;10.602;2023-03-03T12:50:49;25.67;;;18.70;;
974;SDS011;6115;49.296;10.602;2023-03-03T12:56:09;26.03;;;18.83;;
974;SDS011;6115;49.296;10.602;2023-03-03T13:11:49;26.77;;;20.13;;
974;SDS011;6115;49.296;10.602;2023-03-03T13:17:12;27.13;;;20.40;;
974;SDS011;6115;49.296;10.602;2023-03-03T13:22:35;28.20;;;19.30;;
974;SDS011;6115;49.296;10.602;2023-03-03T13:27:41;29.33;;;19.47;;
974;SDS011;6115;49.296;10.602;2023-03-03T13:32:51;31.17;;;19.80;;
974;SDS011;6115;49.296;10.602;2023-03-03T13:38:00;26.23;;;19.53;;
974;SDS011;6115;49.296;10.602;2023-03-03T13:43:07;27.00;;;18.87;;
974;SDS011;6115;49.296;10.602;2023-03-03T13:58:59;24.90;;;20.33;;
974;SDS011;6115;49.296;10.602;2023-03-03T14:04:34;25.97;;;19.10;;
974;SDS011;6115;49.296;10.602;2023-03-03T14:09:43;23.87;;;18.30;;
974;SDS011;6115;49.296;10.602;2023-03-03T14:25:53;28.63;;;18.30;;
974;SDS011;6115;49.296;10.602;2023-03-03T14:30:55;24.23;;;17.20;;
974;SDS011;6115;49.296;10.602;2023-03-03T14:51:30;22.33;;;17.03;;
974;SDS011;6115;49.296;10.602;2023-03-03T15:02:35;24.07;;;15.00;;
974;SDS011;6115;49.296;10.602;2023-03-03T15:07:41;20.53;;;14.13;;
974;SDS011;6115;49.296;10.602;2023-03-03T15:12:42;21.20;;;13.97;;
974;SDS011;6115;49.296;10.602;2023-03-03T15:22:57;21.50;;;15.30;;
974;SDS011;6115;49.296;10.602;2023-03-03T15:38:57;18.00;;;12.37;;
974;SDS011;6115;49.296;10.602;2023-03-03T15:44:37;20.83;;;13.30;;
974;SDS011;6115;49.296;10.602;2023-03-03T15:55:30;18.53;;;12.83;;
974;SDS011;6115;49.296;10.602;2023-03-03T16:06:04;19.77;;;12.13;;
974;SDS011;6115;49.296;10.602;2023-03-03T16:11:23;18.50;;;12.20;;
974;SDS011;6115;49.296;10.602;2023-03-03T16:16:38;21.07;;;13.27;;
974;SDS011;6115;49.296;10.602;2023-03-03T16:21:53;17.50;;;11.57;;
974;SDS011;6115;49.296;10.602;2023-03-03T16:27:28;17.53;;;11.03;;
974;SDS011;6115;49.296;10.602;2023-03-03T16:32:46;15.50;;;9.80;;
974;SDS011;6115;49.296;10.602;2023-03-03T16:37:57;17.63;;;9.50;;
974;SDS011;6115;49.296;10.602;2023-03-03T16:43:05;14.10;;;9.20;;
974;SDS011;6115;49.296;10.602;2023-03-03T16:58:26;14.93;;;9.90;;
974;SDS011;6115;49.296;10.602;2023-03-03T17:19:19;24.40;;;15.83;;
974;SDS011;6115;49.296;10.602;2023-03-03T17:35:28;24.97;;;15.33;;
974;SDS011;6115;49.296;10.602;2023-03-03T17:46:03;21.50;;;13.83;;
974;SDS011;6115;49.296;10.602;2023-03-03T18:07:32;25.73;;;13.13;;
974;SDS011;6115;49.296;10.602;2023-03-03T18:28:48;21.47;;;11.73;;
974;SDS011;6115;49.296;10.602;2023-03-03T18:34:36;18.07;;;11.27;;
974;SDS011;6115;49.296;10.602;2023-03-03T18:39:38;26.13;;;13.20;;
974;SDS011;6115;49.296;10.602;2023-03-03T18:44:40;31.20;;;16.73;;
974;SDS011;6115;49.296;10.602;2023-03-03T18:49:55;25.23;;;14.17;;
974;SDS011;6115;49.296;10.602;2023-03-03T19:00:21;31.17;;;17.90;;
974;SDS011;6115;49.296;10.602;2023-03-03T19:05:30;22.20;;;12.80;;
974;SDS011;6115;49.296;10.602;2023-03-03T19:15:43;23.90;;;14.07;;
974;SDS011;6115;49.296;10.602;2023-03-03T19:37:04;42.87;;;20.53;;
974;SDS011;6115;49.296;10.602;2023-03-03T19:47:38;33.37;;;17.77;;
974;SDS011;6115;49.296;10.602;2023-03-03T19:52:46;32.87;;;18.97;;
974;SDS011;6115;49.296;10.602;2023-03-03T20:03:24;37.50;;;20.20;;
974;SDS011;6115;49.296;10.602;2023-03-03T20:08:48;33.40;;;17.83;;
974;SDS011;6115;49.296;10.602;2023-03-03T20:14:00;43.97;;;18.57;;
974;SDS011;6115;49.296;10.602;2023-03-03T20:19:19;39.67;;;17.53;;
974;SDS011;6115;49.296;10.602;2023-03-03T20:24:38;36.80;;;18.40;;
974;SDS011;6115;49.296;10.602;2023-03-03T20:30:11;32.47;;;17.57;;
974;SDS011;6115;49.296;10.602;2023-03-03T20:40:46;36.07;;;15.07;;
974;SDS011;6115;49.296;10.602;2023-03-03T20:46:20;32.27;;;14.43;;
974;SDS011;6115;49.296;10.602;2023-03-03T21:07:24;34.17;;;16.80;;
974;SDS011;6115;49.296;10.602;2023-03-03T21:12:29;25.37;;;14.77;;
974;SDS011;6115;49.296;10.602;2023-03-03T21:17:30;27.83;;;14.57;;
974;SDS011;6115;49.296;10.602;2023-03-03T21:22:31;33.83;;;14.40;;
974;SDS011;6115;49.296;10.602;2023-03-03T21:27:33;38.83;;;16.30;;
974;SDS011;6115;49.296;10.602;2023-03-03T21:32:39;26.67;;;13.10;;
974;SDS011;6115;49.296;10.602;2023-03-03T21:37:45;30.03;;;14.37;;
974;SDS011;6115;49.296;10.602;2023-03-03T21:42:54;29.27;;;14.30;;
974;SDS011;6115;49.296;10.602;2023-03-03T21:47:56;23.90;;;14.97;;
974;SDS011;6115;49.296;10.602;2023-03-03T21:52:57;29.60;;;15.87;;
974;SDS011;6115;49.296;10.602;2023-03-03T21:57:57;38.77;;;14.63;;
974;SDS011;6115;49.296;10.602;2023-03-03T22:02:58;28.50;;;13.17;;
974;SDS011;6115;49.296;10.602;2023-03-03T22:07:58;25.90;;;13.50;;
974;SDS011;6115;49.296;10.602;2023-03-03T22:12:59;23.43;;;13.00;;
974;SDS011;6115;49.296;10.602;2023-03-03T22:18:00;20.67;;;12.00;;
974;SDS011;6115;49.296;10.602;2023-03-03T22:23:00;24.73;;;12.80;;
974;SDS011;6115;49.296;10.602;2023-03-03T22:28:01;20.57;;;13.20;;
974;SDS011;6115;49.296;10.602;2023-03-03T22:33:01;29.53;;;14.33;;
974;SDS011;6115;49.296;10.602;2023-03-03T22:38:02;23.97;;;13.83;;
974;SDS011;6115;49.296;10.602;2023-03-03T22:43:03;26.07;;;13.50;;
974;SDS011;6115;49.296;10.602;2023-03-03T22:48:05;22.60;;;13.00;;
974;SDS011;6115;49.296;10.602;2023-03-03T22:53:06;26.10;;;11.97;;
974;SDS011;6115;49.296;10.602;2023-03-03T22:58:07;20.70;;;12.20;;
974;SDS011;6115;49.296;10.602;2023-03-03T23:03:08;23.47;;;13.10;;
974;SDS011;6115;49.296;10.602;2023-03-03T23:08:11;33.40;;;14.00;;
974;SDS011;6115;49.296;10.602;2023-03-03T23:13:13;30.50;;;15.17;;
974;SDS011;6115;49.296;10.602;2023-03-03T23:18:14;26.50;;;13.37;;
974;SDS011;6115;49.296;10.602;2023-03-03T23:23:15;24.63;;;10.73;;
974;SDS011;6115;49.296;10.602;2023-03-03T23:28:16;20.20;;;10.87;;
974;SDS011;6115;49.296;10.602;2023-03-03T23:33:18;17.93;;;10.83;;
974;SDS011;6115;49.296;10.602;2023-03-03T23:38:18;25.70;;;11.30;;
974;SDS011;6115;49.296;10.602;2023-03-03T23:43:19;21.90;;;12.40;;
974;SDS011;6115;49.296;10.602;2023-03-03T23:48:19;18.20;;;10.57;;
974;SDS011;6115;49.296;10.602;2023-03-03T23:53:20;22.67;;;11.10;;
974;SDS011;6115;49.296;10.602;2023-03-03T23:58:20;18.80;;;12.27;;
